createdAt,value
2023-04-08T00:00:16.891Z,5.17
2023-04-08T00:01:16.471Z,5.14
2023-04-08T00:02:16.411Z,5.10
2023-04-08T00:03:17.279Z,5.10
2023-04-08T00:04:17.177Z,5.10
2023-04-08T00:05:16.881Z,5.08
2023-04-08T00:06:16.456Z,5.06
2023-04-08T00:07:17.006Z,5.06
2023-04-08T00:08:16.563Z,5.04
2023-04-08T00:09:17.105Z,5.03
2023-04-08T00:10:16.650Z,5.02
2023-04-08T00:11:17.187Z,4.97
2023-04-08T00:12:17.138Z,4.96
2023-04-08T00:13:16.744Z,4.92
2023-04-08T00:14:17.324Z,4.87
2023-04-08T00:15:16.862Z,4.85
2023-04-08T00:16:16.431Z,4.83
2023-04-08T00:17:17.080Z,4.82
2023-04-08T00:18:16.635Z,4.83
2023-04-08T00:19:17.222Z,4.79
2023-04-08T00:20:16.761Z,4.75
2023-04-08T00:21:17.296Z,4.75
2023-04-08T00:22:17.079Z,4.73
2023-04-08T00:23:16.635Z,4.73
2023-04-08T00:24:17.235Z,4.71
2023-04-08T00:25:16.776Z,4.67
2023-04-08T00:26:16.355Z,4.64
2023-04-08T00:27:16.895Z,4.62
2023-04-08T00:28:16.453Z,4.59
2023-04-08T00:29:17.027Z,4.61
2023-04-08T00:30:16.589Z,4.62
2023-04-08T00:31:17.193Z,4.54
2023-04-08T00:32:17.014Z,4.38
2023-04-08T00:33:16.578Z,4.31
2023-04-08T00:34:17.147Z,4.28
2023-04-08T00:35:16.717Z,4.33
2023-04-08T00:36:16.364Z,4.34
2023-04-08T00:37:16.936Z,4.33
2023-04-08T00:38:16.478Z,4.31
2023-04-08T00:39:17.034Z,4.30
2023-04-08T00:40:16.601Z,4.28
2023-04-08T00:41:17.160Z,4.27
2023-04-08T00:42:17.145Z,4.25
2023-04-08T00:43:16.747Z,4.23
2023-04-08T00:44:16.406Z,4.23
2023-04-08T00:45:16.993Z,4.21
2023-04-08T00:46:16.566Z,4.18
2023-04-08T00:47:17.154Z,4.20
2023-04-08T00:48:16.725Z,4.14
2023-04-08T00:49:17.273Z,4.14
2023-04-08T00:50:16.822Z,4.12
2023-04-08T00:51:16.404Z,4.12
2023-04-08T00:52:17.055Z,4.07
2023-04-08T00:53:16.582Z,4.05
2023-04-08T00:54:17.161Z,4.03
2023-04-08T00:55:16.724Z,4.05
2023-04-08T00:56:17.293Z,4.02
2023-04-08T00:57:16.862Z,3.97
2023-04-08T00:58:16.408Z,3.96
2023-04-08T00:59:17.115Z,3.96
2023-04-08T01:00:16.697Z,3.95
2023-04-08T01:01:17.311Z,3.89
2023-04-08T01:02:16.701Z,3.89
2023-04-08T01:03:16.708Z,3.90
2023-04-08T01:04:16.704Z,3.89
2023-04-08T01:05:16.492Z,3.86
2023-04-08T01:06:17.043Z,3.85
2023-04-08T01:07:16.588Z,3.86
2023-04-08T01:08:17.147Z,3.86
2023-04-08T01:09:16.716Z,3.85
2023-04-08T01:10:17.288Z,3.82
2023-04-08T01:11:16.851Z,3.81
2023-04-08T01:12:17.015Z,3.81
2023-04-08T01:13:16.602Z,3.79
2023-04-08T01:14:17.149Z,3.77
2023-04-08T01:15:16.731Z,3.74
2023-04-08T01:16:17.272Z,3.74
2023-04-08T01:17:16.888Z,3.75
2023-04-08T01:18:16.481Z,3.82
2023-04-08T01:19:17.067Z,3.85
2023-04-08T01:20:16.624Z,3.88
2023-04-08T01:21:17.177Z,3.92
2023-04-08T01:22:17.269Z,3.96
2023-04-08T01:23:16.828Z,3.89
2023-04-08T01:24:16.416Z,3.89
2023-04-08T01:25:16.993Z,3.90
2023-04-08T01:26:16.569Z,3.93
2023-04-08T01:27:17.125Z,3.95
2023-04-08T01:28:16.748Z,3.95
2023-04-08T01:29:17.304Z,3.96
2023-04-08T01:30:16.861Z,3.95
2023-04-08T01:31:16.388Z,3.97
2023-04-08T01:32:16.401Z,4.02
2023-04-08T01:33:16.958Z,4.03
2023-04-08T01:34:16.510Z,4.03
2023-04-08T01:35:17.047Z,3.96
2023-04-08T01:36:16.685Z,4.02
2023-04-08T01:37:17.275Z,4.00
2023-04-08T01:38:16.843Z,4.03
2023-04-08T01:39:16.431Z,4.03
2023-04-08T01:40:17.036Z,4.02
2023-04-08T01:41:16.617Z,4.05
2023-04-08T01:42:17.299Z,4.05
2023-04-08T01:43:16.868Z,4.12
2023-04-08T01:44:16.421Z,4.07
2023-04-08T01:45:17.026Z,4.10
2023-04-08T01:46:16.707Z,4.12
2023-04-08T01:47:16.336Z,4.16
2023-04-08T01:48:16.900Z,4.16
2023-04-08T01:49:16.456Z,4.16
2023-04-08T01:50:16.997Z,4.17
2023-04-08T01:51:16.590Z,4.20
2023-04-08T01:52:16.405Z,4.18
2023-04-08T01:53:16.993Z,4.21
2023-04-08T01:54:16.546Z,4.23
2023-04-08T01:55:17.118Z,4.25
2023-04-08T01:56:16.690Z,4.25
2023-04-08T01:57:17.232Z,4.30
2023-04-08T01:58:16.779Z,4.30
2023-04-08T01:59:16.325Z,4.34
2023-04-08T02:00:16.920Z,4.28
2023-04-08T02:01:16.456Z,4.25
2023-04-08T02:02:16.911Z,4.24
2023-04-08T02:03:16.768Z,4.27
2023-04-08T02:04:17.054Z,4.30
2023-04-08T02:05:16.843Z,4.27
2023-04-08T02:06:16.410Z,4.21
2023-04-08T02:07:16.966Z,4.18
2023-04-08T02:08:16.575Z,4.21
2023-04-08T02:09:17.153Z,4.21
2023-04-08T02:10:16.720Z,4.23
2023-04-08T02:11:17.275Z,4.21
2023-04-08T02:12:17.014Z,4.25
2023-04-08T02:13:16.570Z,4.25
2023-04-08T02:14:17.121Z,4.24
2023-04-08T02:15:16.665Z,4.27
2023-04-08T02:16:17.282Z,4.33
2023-04-08T02:17:16.938Z,4.33
2023-04-08T02:18:16.634Z,4.34
2023-04-08T02:19:17.194Z,4.38
2023-04-08T02:20:16.802Z,4.41
2023-04-08T02:21:16.440Z,4.40
2023-04-08T02:22:16.380Z,4.45
2023-04-08T02:23:16.970Z,4.48
2023-04-08T02:24:16.526Z,4.51
2023-04-08T02:25:17.102Z,4.51
2023-04-08T02:26:16.673Z,4.57
2023-04-08T02:27:17.226Z,4.57
2023-04-08T02:28:16.856Z,4.65
2023-04-08T02:29:16.397Z,4.71
2023-04-08T02:30:16.981Z,4.67
2023-04-08T02:31:16.534Z,4.67
2023-04-08T02:32:16.345Z,4.62
2023-04-08T02:33:16.894Z,4.62
2023-04-08T02:34:16.425Z,4.65
2023-04-08T02:35:17.050Z,4.65
2023-04-08T02:36:17.012Z,4.67
2023-04-08T02:37:16.554Z,4.67
2023-04-08T02:38:17.120Z,4.68
2023-04-08T02:39:16.696Z,4.69
2023-04-08T02:40:17.301Z,4.72
2023-04-08T02:41:16.877Z,4.72
2023-04-08T02:42:16.520Z,4.72
2023-04-08T02:43:17.058Z,4.78
2023-04-08T02:44:16.613Z,4.78
2023-04-08T02:45:17.178Z,4.79
2023-04-08T02:46:16.750Z,4.80
2023-04-08T02:47:16.434Z,4.80
2023-04-08T02:48:16.993Z,4.80
2023-04-08T02:49:16.568Z,4.83
2023-04-08T02:50:17.134Z,4.83
2023-04-08T02:51:16.714Z,4.85
2023-04-08T02:52:16.576Z,4.85
2023-04-08T02:53:17.152Z,4.86
2023-04-08T02:54:16.688Z,4.85
2023-04-08T02:55:17.265Z,4.87
2023-04-08T02:56:16.856Z,4.89
2023-04-08T02:57:16.417Z,4.87
2023-04-08T02:58:16.980Z,4.90
2023-04-08T02:59:16.542Z,4.92
2023-04-08T03:00:17.111Z,4.99
2023-04-08T03:01:16.704Z,4.99
2023-04-08T03:02:16.483Z,4.97
2023-04-08T03:03:17.249Z,4.99
2023-04-08T03:04:17.030Z,5.00
2023-04-08T03:05:16.596Z,5.00
2023-04-08T03:06:17.142Z,5.04
2023-04-08T03:07:16.717Z,5.08
2023-04-08T03:08:17.268Z,5.08
2023-04-08T03:09:16.816Z,5.10
2023-04-08T03:10:16.423Z,5.10
2023-04-08T03:11:16.976Z,5.11
2023-04-08T03:12:16.602Z,5.11
2023-04-08T03:13:17.134Z,5.08
2023-04-08T03:14:16.729Z,5.13
2023-04-08T03:15:16.408Z,5.10
2023-04-08T03:16:17.002Z,5.10
2023-04-08T03:17:16.562Z,5.10
2023-04-08T03:18:17.101Z,5.10
2023-04-08T03:19:16.701Z,5.08
2023-04-08T03:20:17.262Z,5.08
2023-04-08T03:21:16.793Z,5.07
2023-04-08T03:22:16.801Z,5.10
2023-04-08T03:23:16.354Z,5.08
2023-04-08T03:24:16.912Z,5.07
2023-04-08T03:25:16.487Z,5.07
2023-04-08T03:26:17.057Z,5.00
2023-04-08T03:27:16.593Z,5.06
2023-04-08T03:28:17.164Z,5.04
2023-04-08T03:29:17.099Z,5.03
2023-04-08T03:30:17.064Z,5.02
2023-04-08T03:31:16.907Z,5.02
2023-04-08T03:32:16.493Z,4.99
2023-04-08T03:33:17.049Z,5.00
2023-04-08T03:34:16.607Z,4.99
2023-04-08T03:35:17.170Z,5.02
2023-04-08T03:36:16.764Z,4.97
2023-04-08T03:37:17.301Z,4.96
2023-04-08T03:38:16.849Z,4.99
2023-04-08T03:39:16.407Z,5.00
2023-04-08T03:40:16.965Z,4.99
2023-04-08T03:41:16.512Z,5.00
2023-04-08T03:42:16.595Z,5.03
2023-04-08T03:43:17.145Z,5.02
2023-04-08T03:44:16.699Z,5.04
2023-04-08T03:45:17.288Z,5.04
2023-04-08T03:46:16.922Z,5.07
2023-04-08T03:47:16.589Z,5.08
2023-04-08T03:48:17.123Z,5.10
2023-04-08T03:49:16.708Z,5.08
2023-04-08T03:50:17.248Z,5.10
2023-04-08T03:51:16.783Z,5.08
2023-04-08T03:52:16.819Z,5.07
2023-04-08T03:53:16.374Z,5.04
2023-04-08T03:54:16.905Z,5.04
2023-04-08T03:55:16.449Z,5.04
2023-04-08T03:56:17.007Z,5.02
2023-04-08T03:57:16.601Z,5.04
2023-04-08T03:58:17.146Z,5.07
2023-04-08T03:59:16.697Z,5.08
2023-04-08T04:00:17.290Z,5.10
2023-04-08T04:01:16.827Z,5.08
2023-04-08T04:02:16.743Z,5.10
2023-04-08T04:03:16.531Z,5.11
2023-04-08T04:04:17.387Z,5.11
2023-04-08T04:05:17.205Z,5.10
2023-04-08T04:06:16.744Z,5.13
2023-04-08T04:07:17.257Z,5.15
2023-04-08T04:08:16.814Z,5.15
2023-04-08T04:09:16.361Z,5.20
2023-04-08T04:10:16.915Z,5.21
2023-04-08T04:11:16.496Z,5.20
2023-04-08T04:12:17.284Z,5.21
2023-04-08T04:13:16.835Z,5.24
2023-04-08T04:14:16.385Z,5.24
2023-04-08T04:15:16.962Z,5.30
2023-04-08T04:16:16.617Z,5.30
2023-04-08T04:17:16.338Z,5.31
2023-04-08T04:18:16.908Z,5.32
2023-04-08T04:19:16.560Z,5.32
2023-04-08T04:20:17.092Z,5.34
2023-04-08T04:21:16.628Z,5.32
2023-04-08T04:22:17.025Z,5.35
2023-04-08T04:23:16.558Z,5.34
2023-04-08T04:24:17.150Z,5.34
2023-04-08T04:25:16.703Z,5.31
2023-04-08T04:26:17.296Z,5.32
2023-04-08T04:27:16.899Z,5.37
2023-04-08T04:28:16.445Z,5.35
2023-04-08T04:29:16.996Z,5.35
2023-04-08T04:30:16.548Z,5.34
2023-04-08T04:31:17.132Z,5.34
2023-04-08T04:32:16.983Z,5.35
2023-04-08T04:33:16.537Z,5.34
2023-04-08T04:34:17.100Z,5.37
2023-04-08T04:35:16.673Z,5.34
2023-04-08T04:36:17.317Z,5.38
2023-04-08T04:37:16.873Z,5.37
2023-04-08T04:38:16.439Z,5.35
2023-04-08T04:39:16.978Z,5.35
2023-04-08T04:40:16.570Z,5.38
2023-04-08T04:41:17.157Z,5.37
2023-04-08T04:42:17.193Z,5.37
2023-04-08T04:43:16.759Z,5.35
2023-04-08T04:44:16.371Z,5.38
2023-04-08T04:45:16.924Z,5.38
2023-04-08T04:46:16.753Z,5.38
2023-04-08T04:47:16.450Z,5.38
2023-04-08T04:48:17.071Z,5.43
2023-04-08T04:49:16.659Z,5.43
2023-04-08T04:50:17.233Z,5.42
2023-04-08T04:51:16.803Z,5.43
2023-04-08T04:52:16.713Z,5.41
2023-04-08T04:53:17.245Z,5.43
2023-04-08T04:54:16.798Z,5.43
2023-04-08T04:55:16.351Z,5.43
2023-04-08T04:56:16.954Z,5.43
2023-04-08T04:57:16.544Z,5.46
2023-04-08T04:58:17.072Z,5.48
2023-04-08T04:59:16.607Z,5.48
2023-04-08T05:00:17.142Z,5.46
2023-04-08T05:01:16.719Z,5.45
2023-04-08T05:02:16.714Z,5.46
2023-04-08T05:03:16.582Z,5.46
2023-04-08T05:04:16.592Z,5.45
2023-04-08T05:05:17.224Z,5.45
2023-04-08T05:06:16.865Z,5.49
2023-04-08T05:07:16.413Z,5.46
2023-04-08T05:08:16.974Z,5.46
2023-04-08T05:09:16.533Z,5.48
2023-04-08T05:10:17.078Z,5.51
2023-04-08T05:11:16.656Z,5.53
2023-04-08T05:12:16.707Z,5.51
2023-04-08T05:13:17.315Z,5.49
2023-04-08T05:14:16.866Z,5.53
2023-04-08T05:15:16.411Z,5.52
2023-04-08T05:16:17.001Z,5.55
2023-04-08T05:17:16.655Z,5.55
2023-04-08T05:18:17.218Z,5.57
2023-04-08T05:19:16.768Z,5.53
2023-04-08T05:20:17.763Z,5.53
2023-04-08T05:21:16.418Z,5.49
2023-04-08T05:22:17.118Z,5.51
2023-04-08T05:23:16.666Z,5.53
2023-04-08T05:24:17.220Z,5.57
2023-04-08T05:25:16.798Z,5.55
2023-04-08T05:26:16.593Z,5.52
2023-04-08T05:27:16.592Z,5.55
2023-04-08T05:28:17.163Z,5.51
2023-04-08T05:29:16.727Z,5.52
2023-04-08T05:30:17.277Z,5.52
2023-04-08T05:31:16.847Z,5.53
2023-04-08T05:32:17.229Z,5.55
2023-04-08T05:33:16.798Z,5.55
2023-04-08T05:34:16.512Z,5.53
2023-04-08T05:35:17.154Z,5.57
2023-04-08T05:36:16.792Z,5.43
2023-04-08T05:37:16.347Z,5.42
2023-04-08T05:38:16.889Z,5.41
2023-04-08T05:39:16.451Z,5.43
2023-04-08T05:40:17.010Z,5.41
2023-04-08T05:41:16.613Z,5.39
2023-04-08T05:42:17.195Z,5.35
2023-04-08T05:43:16.725Z,5.39
2023-04-08T05:44:17.260Z,5.39
2023-04-08T05:45:16.858Z,5.41
2023-04-08T05:46:16.442Z,5.39
2023-04-08T05:47:17.080Z,5.38
2023-04-08T05:48:16.636Z,5.38
2023-04-08T05:49:17.200Z,5.41
2023-04-08T05:50:16.782Z,5.43
2023-04-08T05:51:16.334Z,5.45
2023-04-08T05:52:16.379Z,5.42
2023-04-08T05:53:16.926Z,5.42
2023-04-08T05:54:16.523Z,5.48
2023-04-08T05:55:17.087Z,5.48
2023-04-08T05:56:16.638Z,5.49
2023-04-08T05:57:17.199Z,5.49
2023-04-08T05:58:16.755Z,5.52
2023-04-08T05:59:17.321Z,5.53
2023-04-08T06:00:16.914Z,5.52
2023-04-08T06:01:16.557Z,5.52
2023-04-08T06:02:17.151Z,5.49
2023-04-08T06:03:18.986Z,5.51
2023-04-08T06:04:16.475Z,5.51
2023-04-08T06:05:17.241Z,5.48
2023-04-08T06:06:16.802Z,5.51
2023-04-08T06:07:16.325Z,5.49
2023-04-08T06:08:16.891Z,5.42
2023-04-08T06:09:16.492Z,5.46
2023-04-08T06:10:17.067Z,5.48
2023-04-08T06:11:16.627Z,5.46
2023-04-08T06:12:16.349Z,5.51
2023-04-08T06:13:16.907Z,5.49
2023-04-08T06:14:16.469Z,5.49
2023-04-08T06:15:17.042Z,5.49
2023-04-08T06:16:18.188Z,5.46
2023-04-08T06:17:16.691Z,5.46
2023-04-08T06:18:17.249Z,5.46
2023-04-08T06:19:17.035Z,5.42
2023-04-08T06:20:16.632Z,5.41
2023-04-08T06:21:17.193Z,5.35
2023-04-08T06:22:16.738Z,5.37
2023-04-08T06:23:17.269Z,5.35
2023-04-08T06:24:16.812Z,5.39
2023-04-08T06:25:16.390Z,5.41
2023-04-08T06:26:16.958Z,5.42
2023-04-08T06:27:16.545Z,5.43
2023-04-08T06:28:17.125Z,5.42
2023-04-08T06:29:16.813Z,5.38
2023-04-08T06:30:16.392Z,5.37
2023-04-08T06:31:16.975Z,5.35
2023-04-08T06:32:16.663Z,5.35
2023-04-08T06:33:17.213Z,5.28
2023-04-08T06:34:16.744Z,5.28
2023-04-08T06:35:17.408Z,5.31
2023-04-08T06:36:17.112Z,5.28
2023-04-08T06:37:16.683Z,5.30
2023-04-08T06:38:17.250Z,5.30
2023-04-08T06:39:16.818Z,5.28
2023-04-08T06:40:16.419Z,5.27
2023-04-08T06:41:17.010Z,5.31
2023-04-08T06:42:17.085Z,5.30
2023-04-08T06:43:16.641Z,5.30
2023-04-08T06:44:17.182Z,5.31
2023-04-08T06:45:16.768Z,5.28
2023-04-08T06:46:16.388Z,5.25
2023-04-08T06:47:17.030Z,5.24
2023-04-08T06:48:16.591Z,5.28
2023-04-08T06:49:17.124Z,5.28
2023-04-08T06:50:16.747Z,5.24
2023-04-08T06:51:17.331Z,5.24
2023-04-08T06:52:17.261Z,5.24
2023-04-08T06:53:16.831Z,5.23
2023-04-08T06:54:16.387Z,5.20
2023-04-08T06:55:16.969Z,5.20
2023-04-08T06:56:16.517Z,5.15
2023-04-08T06:57:16.382Z,5.17
2023-04-08T06:58:16.957Z,5.18
2023-04-08T06:59:16.525Z,5.24
2023-04-08T07:00:17.094Z,5.27
2023-04-08T07:01:16.688Z,5.28
2023-04-08T07:02:16.828Z,5.32
2023-04-08T07:03:16.473Z,5.37
2023-04-08T07:04:17.322Z,5.41
2023-04-08T07:05:17.070Z,5.41
2023-04-08T07:06:16.620Z,5.45
2023-04-08T07:07:17.197Z,5.46
2023-04-08T07:08:16.770Z,5.48
2023-04-08T07:09:16.468Z,5.46
2023-04-08T07:10:17.278Z,5.48
2023-04-08T07:11:16.935Z,5.49
2023-04-08T07:12:16.472Z,5.52
2023-04-08T07:13:17.057Z,5.61
2023-04-08T07:14:16.627Z,5.66
2023-04-08T07:15:17.195Z,5.59
2023-04-08T07:16:16.755Z,5.59
2023-04-08T07:17:16.379Z,5.61
2023-04-08T07:18:16.943Z,5.63
2023-04-08T07:19:16.506Z,5.58
2023-04-08T07:20:17.023Z,5.58
2023-04-08T07:21:16.564Z,5.39
2023-04-08T07:22:16.437Z,5.43
2023-04-08T07:23:17.006Z,5.46
2023-04-08T07:24:16.540Z,5.49
2023-04-08T07:25:17.100Z,5.52
2023-04-08T07:26:16.692Z,5.52
2023-04-08T07:27:17.228Z,5.57
2023-04-08T07:28:16.828Z,5.55
2023-04-08T07:29:16.387Z,5.55
2023-04-08T07:30:16.952Z,5.57
2023-04-08T07:31:16.569Z,5.57
2023-04-08T07:32:17.115Z,5.55
2023-04-08T07:33:16.656Z,5.45
2023-04-08T07:34:17.223Z,5.45
2023-04-08T07:35:16.757Z,5.41
2023-04-08T07:36:17.312Z,5.46
2023-04-08T07:37:16.876Z,5.46
2023-04-08T07:38:16.432Z,5.53
2023-04-08T07:39:16.994Z,5.52
2023-04-08T07:40:16.565Z,5.57
2023-04-08T07:41:17.122Z,5.55
2023-04-08T07:42:17.000Z,5.55
2023-04-08T07:43:16.569Z,5.49
2023-04-08T07:44:17.206Z,5.46
2023-04-08T07:45:16.867Z,5.41
2023-04-08T07:46:16.441Z,5.46
2023-04-08T07:47:17.058Z,5.46
2023-04-08T07:48:16.629Z,5.53
2023-04-08T07:49:17.180Z,5.55
2023-04-08T07:50:16.809Z,5.57
2023-04-08T07:51:16.366Z,5.57
2023-04-08T07:52:16.769Z,5.57
2023-04-08T07:53:17.323Z,5.62
2023-04-08T07:54:16.873Z,5.62
2023-04-08T07:55:16.476Z,5.65
2023-04-08T07:56:16.624Z,5.55
2023-04-08T07:57:16.372Z,5.57
2023-04-08T07:58:17.194Z,5.55
2023-04-08T07:59:17.047Z,5.61
2023-04-08T08:00:16.574Z,5.59
2023-04-08T08:01:17.112Z,5.65
2023-04-08T08:02:17.033Z,5.61
2023-04-08T08:03:16.813Z,5.59
2023-04-08T08:04:16.480Z,5.61
2023-04-08T08:05:16.611Z,5.65
2023-04-08T08:06:16.441Z,5.63
2023-04-08T08:07:17.044Z,5.62
2023-04-08T08:08:16.587Z,5.59
2023-04-08T08:09:17.177Z,5.59
2023-04-08T08:10:16.723Z,5.52
2023-04-08T08:11:17.279Z,5.49
2023-04-08T08:12:17.157Z,5.57
2023-04-08T08:13:16.720Z,5.57
2023-04-08T08:14:16.349Z,5.55
2023-04-08T08:15:16.904Z,5.57
2023-04-08T08:16:16.470Z,5.66
2023-04-08T08:17:17.076Z,5.68
2023-04-08T08:18:16.626Z,5.70
2023-04-08T08:19:17.189Z,5.69
2023-04-08T08:20:16.744Z,5.66
2023-04-08T08:21:17.289Z,5.72
2023-04-08T08:22:17.222Z,5.79
2023-04-08T08:23:16.789Z,5.76
2023-04-08T08:24:16.351Z,5.75
2023-04-08T08:25:16.936Z,5.72
2023-04-08T08:26:16.484Z,5.76
2023-04-08T08:27:17.024Z,5.76
2023-04-08T08:28:16.552Z,5.77
2023-04-08T08:29:17.132Z,5.77
2023-04-08T08:30:16.696Z,5.75
2023-04-08T08:31:17.252Z,5.79
2023-04-08T08:32:16.814Z,5.77
2023-04-08T08:33:16.397Z,5.80
2023-04-08T08:34:16.969Z,5.85
2023-04-08T08:35:16.583Z,5.92
2023-04-08T08:36:17.170Z,5.90
2023-04-08T08:37:16.815Z,5.90
2023-04-08T08:38:16.358Z,5.94
2023-04-08T08:39:16.947Z,5.98
2023-04-08T08:40:16.492Z,5.98
2023-04-08T08:41:17.076Z,5.96
2023-04-08T08:42:16.789Z,5.97
2023-04-08T08:43:16.347Z,5.98
2023-04-08T08:44:16.889Z,6.01
2023-04-08T08:45:16.439Z,6.07
2023-04-08T08:46:17.067Z,6.11
2023-04-08T08:47:16.784Z,6.11
2023-04-08T08:48:16.353Z,6.11
2023-04-08T08:49:16.964Z,6.15
2023-04-08T08:50:16.512Z,6.15
2023-04-08T08:51:17.103Z,6.17
2023-04-08T08:52:17.024Z,6.12
2023-04-08T08:53:16.603Z,6.14
2023-04-08T08:54:17.167Z,6.20
2023-04-08T08:55:28.004Z,6.17
2023-04-08T08:56:18.611Z,6.25
2023-04-08T08:57:16.713Z,6.25
2023-04-08T08:58:17.273Z,6.36
2023-04-08T08:59:16.849Z,6.25
2023-04-08T09:00:16.409Z,6.28
2023-04-08T09:01:16.966Z,6.29
2023-04-08T09:02:16.685Z,6.35
2023-04-08T09:03:16.655Z,6.35
2023-04-08T09:04:17.055Z,6.36
2023-04-08T09:05:17.509Z,6.33
2023-04-08T09:06:16.412Z,6.31
2023-04-08T09:07:16.975Z,6.32
2023-04-08T09:08:16.540Z,6.35
2023-04-08T09:09:17.090Z,6.31
2023-04-08T09:10:16.676Z,6.39
2023-04-08T09:11:17.218Z,6.48
2023-04-08T09:12:18.095Z,6.39
2023-04-08T09:13:16.848Z,6.39
2023-04-08T09:14:16.471Z,6.26
2023-04-08T09:15:17.074Z,6.22
2023-04-08T09:16:16.725Z,6.28
2023-04-08T09:17:16.364Z,6.26
2023-04-08T09:18:17.774Z,6.25
2023-04-08T09:19:16.400Z,6.24
2023-04-08T09:20:16.973Z,6.26
2023-04-08T09:21:16.529Z,6.33
2023-04-08T09:22:16.396Z,6.35
2023-04-08T09:23:16.933Z,6.42
2023-04-08T09:24:17.750Z,6.46
2023-04-08T09:25:16.386Z,6.45
2023-04-08T09:26:16.937Z,6.48
2023-04-08T09:27:16.523Z,6.49
2023-04-08T09:28:17.105Z,6.57
2023-04-08T09:29:25.355Z,6.67
2023-04-08T09:30:16.497Z,6.72
2023-04-08T09:31:17.122Z,6.82
2023-04-08T09:32:16.808Z,6.83
2023-04-08T09:33:16.358Z,6.79
2023-04-08T09:34:16.933Z,6.83
2023-04-08T09:35:16.485Z,6.86
2023-04-08T09:36:17.020Z,6.86
2023-04-08T09:37:16.609Z,6.91
2023-04-08T09:38:17.199Z,6.91
2023-04-08T09:39:16.749Z,6.95
2023-04-08T09:40:16.330Z,6.93
2023-04-08T09:41:16.975Z,6.97
2023-04-08T09:42:16.686Z,6.97
2023-04-08T09:43:17.264Z,6.88
2023-04-08T09:44:16.847Z,6.94
2023-04-08T09:45:16.416Z,7.00
2023-04-08T09:46:16.960Z,7.00
2023-04-08T09:47:16.632Z,7.01
2023-04-08T09:48:17.186Z,7.07
2023-04-08T09:49:16.737Z,7.10
2023-04-08T09:50:17.303Z,7.11
2023-04-08T09:51:16.842Z,7.14
2023-04-08T09:52:16.607Z,7.28
2023-04-08T09:53:17.162Z,7.21
2023-04-08T09:54:16.716Z,7.25
2023-04-08T09:55:17.286Z,7.30
2023-04-08T09:56:16.838Z,7.29
2023-04-08T09:57:16.430Z,7.30
2023-04-08T09:58:17.028Z,7.46
2023-04-08T09:59:16.608Z,7.57
2023-04-08T10:00:17.161Z,7.58
2023-04-08T10:01:16.775Z,7.50
2023-04-08T10:02:16.526Z,7.67
2023-04-08T10:03:17.424Z,7.68
2023-04-08T10:04:17.336Z,7.74
2023-04-08T10:05:17.078Z,7.73
2023-04-08T10:06:16.697Z,7.77
2023-04-08T10:07:17.284Z,7.77
2023-04-08T10:08:16.894Z,7.92
2023-04-08T10:09:16.437Z,8.00
2023-04-08T10:10:16.985Z,8.04
2023-04-08T10:11:16.615Z,8.02
2023-04-08T10:12:16.881Z,8.02
2023-04-08T10:13:16.457Z,8.00
2023-04-08T10:14:16.990Z,8.02
2023-04-08T10:15:16.546Z,8.01
2023-04-08T10:16:17.124Z,8.04
2023-04-08T10:17:16.668Z,8.00
2023-04-08T10:18:17.232Z,7.94
2023-04-08T10:19:16.768Z,7.88
2023-04-08T10:20:17.371Z,7.83
2023-04-08T10:21:17.030Z,7.81
2023-04-08T10:22:17.096Z,7.77
2023-04-08T10:23:16.682Z,7.80
2023-04-08T10:24:17.250Z,7.83
2023-04-08T10:25:16.868Z,7.77
2023-04-08T10:26:16.550Z,7.87
2023-04-08T10:27:17.114Z,7.81
2023-04-08T10:28:16.655Z,7.87
2023-04-08T10:29:17.195Z,7.87
2023-04-08T10:30:16.802Z,7.84
2023-04-08T10:31:16.455Z,7.83
2023-04-08T10:32:17.116Z,8.00
2023-04-08T10:33:16.692Z,8.06
2023-04-08T10:34:17.291Z,8.06
2023-04-08T10:35:16.856Z,8.04
2023-04-08T10:36:16.437Z,8.09
2023-04-08T10:37:17.031Z,8.18
2023-04-08T10:38:16.614Z,8.26
2023-04-08T10:39:17.261Z,8.25
2023-04-08T10:40:16.887Z,8.29
2023-04-08T10:41:16.493Z,8.43
2023-04-08T10:42:16.839Z,8.53
2023-04-08T10:43:16.407Z,8.85
2023-04-08T10:44:16.954Z,9.23
2023-04-08T10:45:16.571Z,9.51
2023-04-08T10:46:17.154Z,9.88
2023-04-08T10:47:16.916Z,10.16
2023-04-08T10:48:16.529Z,10.61
2023-04-08T10:49:17.077Z,10.90
2023-04-08T10:50:16.698Z,11.48
2023-04-08T10:51:16.354Z,11.51
2023-04-08T10:52:17.078Z,11.09
2023-04-08T10:53:16.663Z,10.64
2023-04-08T10:54:17.212Z,10.67
2023-04-08T10:55:16.783Z,10.68
2023-04-08T10:56:16.375Z,10.71
2023-04-08T10:57:16.944Z,10.89
2023-04-08T10:58:16.482Z,10.89
2023-04-08T10:59:17.066Z,10.93
2023-04-08T11:00:16.638Z,10.74
2023-04-08T11:01:17.236Z,10.81
2023-04-08T11:02:17.343Z,10.74
2023-04-08T11:03:17.268Z,10.57
2023-04-08T11:04:17.233Z,10.58
2023-04-08T11:05:16.970Z,10.47
2023-04-08T11:06:16.560Z,10.60
2023-04-08T11:07:17.110Z,10.64
2023-04-08T11:08:16.965Z,10.70
2023-04-08T11:09:17.006Z,10.76
2023-04-08T11:10:16.545Z,10.78
2023-04-08T11:11:17.088Z,10.33
2023-04-08T11:12:17.080Z,10.24
2023-04-08T11:13:16.605Z,10.40
2023-04-08T11:14:17.148Z,10.26
2023-04-08T11:15:16.692Z,10.26
2023-04-08T11:16:18.427Z,10.38
2023-04-08T11:17:16.316Z,10.37
2023-04-08T11:18:16.869Z,10.33
2023-04-08T11:19:16.417Z,10.30
2023-04-08T11:20:17.028Z,10.47
2023-04-08T11:21:16.683Z,10.62
2023-04-08T11:22:16.687Z,10.55
2023-04-08T11:23:17.234Z,10.44
2023-04-08T11:24:17.001Z,10.21
2023-04-08T11:25:16.597Z,10.08
2023-04-08T11:26:17.130Z,10.06
2023-04-08T11:27:16.683Z,9.98
2023-04-08T11:28:17.235Z,10.00
2023-04-08T11:29:16.785Z,9.96
2023-04-08T11:30:16.403Z,9.92
2023-04-08T11:31:16.987Z,9.98
2023-04-08T11:32:17.118Z,10.02
2023-04-08T11:33:16.673Z,9.99
2023-04-08T11:34:17.230Z,10.06
2023-04-08T11:35:16.782Z,10.02
2023-04-08T11:36:16.328Z,9.82
2023-04-08T11:37:16.869Z,9.78
2023-04-08T11:38:16.437Z,9.69
2023-04-08T11:39:16.968Z,9.57
2023-04-08T11:40:16.513Z,9.53
2023-04-08T11:41:17.102Z,9.41
2023-04-08T11:42:17.032Z,9.43
2023-04-08T11:43:16.579Z,9.33
2023-04-08T11:44:17.126Z,9.15
2023-04-08T11:45:16.732Z,9.12
2023-04-08T11:46:16.341Z,9.20
2023-04-08T11:47:16.969Z,8.98
2023-04-08T11:48:16.600Z,8.90
2023-04-08T11:49:17.278Z,8.88
2023-04-08T11:50:17.071Z,9.01
2023-04-08T11:51:16.789Z,9.08
2023-04-08T11:52:16.932Z,9.25
2023-04-08T11:53:16.600Z,9.33
2023-04-08T11:54:17.286Z,9.30
2023-04-08T11:55:16.949Z,9.33
2023-04-08T11:56:16.608Z,9.29
2023-04-08T11:57:17.145Z,9.30
2023-04-08T11:58:16.713Z,9.30
2023-04-08T11:59:17.262Z,9.34
2023-04-08T12:00:16.838Z,9.34
2023-04-08T12:01:16.380Z,9.33
2023-04-08T12:02:17.345Z,9.30
2023-04-08T12:03:17.197Z,9.31
2023-04-08T12:04:16.955Z,9.27
2023-04-08T12:05:16.780Z,9.33
2023-04-08T12:06:16.345Z,9.36
2023-04-08T12:07:16.900Z,9.48
2023-04-08T12:08:16.440Z,9.53
2023-04-08T12:09:16.985Z,9.53
2023-04-08T12:10:16.578Z,9.57
2023-04-08T12:11:19.814Z,9.58
2023-04-08T12:12:17.080Z,9.69
2023-04-08T12:13:16.618Z,9.71
2023-04-08T12:14:17.164Z,9.71
2023-04-08T12:15:16.760Z,9.78
2023-04-08T12:16:17.336Z,9.71
2023-04-08T12:17:17.022Z,9.59
2023-04-08T12:18:16.625Z,9.61
2023-04-08T12:19:17.201Z,9.48
2023-04-08T12:20:16.796Z,9.46
2023-04-08T12:21:16.349Z,9.43
2023-04-08T12:22:16.783Z,9.37
2023-04-08T12:23:16.321Z,9.31
2023-04-08T12:24:16.867Z,9.31
2023-04-08T12:25:16.434Z,9.27
2023-04-08T12:26:17.031Z,9.30
2023-04-08T12:27:16.616Z,9.31
2023-04-08T12:28:17.162Z,9.34
2023-04-08T12:29:16.706Z,9.34
2023-04-08T12:30:17.259Z,9.34
2023-04-08T12:31:16.923Z,9.38
2023-04-08T12:32:16.759Z,9.37
2023-04-08T12:33:17.316Z,9.44
2023-04-08T12:34:16.856Z,9.44
2023-04-08T12:35:16.387Z,9.43
2023-04-08T12:36:16.987Z,9.43
2023-04-08T12:37:16.669Z,9.46
2023-04-08T12:38:17.198Z,9.47
2023-04-08T12:39:16.753Z,9.51
2023-04-08T12:40:17.332Z,9.47
2023-04-08T12:41:16.887Z,9.50
2023-04-08T12:42:16.557Z,9.61
2023-04-08T12:43:17.137Z,9.66
2023-04-08T12:44:16.717Z,9.68
2023-04-08T12:45:17.422Z,9.74
2023-04-08T12:46:17.084Z,9.76
2023-04-08T12:47:16.763Z,9.71
2023-04-08T12:48:17.327Z,9.81
2023-04-08T12:49:16.976Z,9.88
2023-04-08T12:50:16.671Z,9.91
2023-04-08T12:51:17.216Z,9.82
2023-04-08T12:52:16.700Z,9.96
2023-04-08T12:53:17.296Z,9.98
2023-04-08T12:54:16.864Z,9.99
2023-04-08T12:55:16.429Z,10.02
2023-04-08T12:56:16.985Z,10.03
2023-04-08T12:57:16.588Z,10.02
2023-04-08T12:58:17.149Z,10.00
2023-04-08T12:59:16.776Z,10.09
2023-04-08T13:00:16.459Z,10.03
2023-04-08T13:01:17.242Z,10.13
2023-04-08T13:02:17.185Z,10.28
2023-04-08T13:03:17.133Z,10.34
2023-04-08T13:04:17.099Z,10.27
2023-04-08T13:05:18.237Z,10.23
2023-04-08T13:06:16.720Z,10.21
2023-04-08T13:07:17.409Z,10.19
2023-04-08T13:08:17.085Z,9.98
2023-04-08T13:09:16.752Z,9.86
2023-04-08T13:10:16.321Z,9.86
2023-04-08T13:11:16.876Z,9.69
2023-04-08T13:12:16.561Z,9.65
2023-04-08T13:13:17.124Z,9.65
2023-04-08T13:14:16.668Z,9.66
2023-04-08T13:15:17.216Z,9.65
2023-04-08T13:16:16.811Z,9.69